Terminal Aerodrome Forecast
Issued by NWS Newport/Morehead City, NC

Home | Current Version | Previous Version | Graphics & Text | Print | Product List | Glossary On
Versions: 1 2 3 4 5 6 7 8 9 10 11 12 13
000
FTUS42 KMHX 262348
TAFEWN
TAF
KEWN 262348Z 2700/2724 17006KT P6SM FEW045 BKN060
     FM270600 VRB03KT 3SM BR SCT250
     FM271100 06005KT P6SM SKC
     FM271800 10007KT P6SM SCT040=

USA.gov is the U.S. government's official web portal to all federal, state and local government web resources and services.